createdAt,value
2022-12-27T00:00:10.354Z,5.50
2022-12-27T00:02:43.394Z,5.30
2022-12-27T00:05:13.044Z,5.20
2022-12-27T00:10:10.010Z,4.90
2022-12-27T00:12:37.061Z,4.80
2022-12-27T00:15:05.534Z,4.70
2022-12-27T00:17:32.566Z,4.60
2022-12-27T00:20:02.864Z,4.60
2022-12-27T00:22:32.518Z,4.50
2022-12-27T00:24:59.534Z,4.40
2022-12-27T00:34:49.256Z,4.20
2022-12-27T00:37:16.275Z,4.10
2022-12-27T00:39:43.230Z,4.10
2022-12-27T00:42:10.443Z,4.10
2022-12-27T00:44:37.411Z,4.00
2022-12-27T00:49:31.959Z,3.90
2022-12-27T00:54:26.394Z,3.80
2022-12-27T00:56:53.481Z,3.80
2022-12-27T00:59:20.549Z,3.60
2022-12-27T01:01:47.795Z,3.50
2022-12-27T01:09:10.048Z,3.40
2022-12-27T01:11:37.071Z,3.30
2022-12-27T01:14:05.686Z,3.20
2022-12-27T01:19:02.120Z,3.10
2022-12-27T01:21:30.761Z,3.10
2022-12-27T01:28:54.505Z,2.80
2022-12-27T01:31:27.749Z,2.80
2022-12-27T01:34:00.573Z,2.70
2022-12-27T01:36:30.661Z,2.80
2022-12-27T01:39:00.040Z,2.80
2022-12-27T01:41:55.799Z,2.80
2022-12-27T01:44:38.715Z,2.80
2022-12-27T01:47:54.884Z,2.70
2022-12-27T01:50:37.078Z,2.60
2022-12-27T01:53:30.586Z,2.70
2022-12-27T01:55:59.406Z,2.70
2022-12-27T01:58:38.212Z,2.70
2022-12-27T02:01:29.581Z,2.70
2022-12-27T02:04:08.018Z,2.70
2022-12-27T02:06:38.191Z,2.60
2022-12-27T02:09:40.674Z,2.70
2022-12-27T02:12:10.685Z,2.60
2022-12-27T02:14:49.136Z,2.60
2022-12-27T02:17:31.742Z,2.50
2022-12-27T02:20:21.391Z,2.50
2022-12-27T02:24:04.699Z,2.40
2022-12-27T02:26:58.183Z,2.40
2022-12-27T02:33:07.635Z,2.30
2022-12-27T02:35:52.567Z,2.20
2022-12-27T02:38:29.487Z,2.10
2022-12-27T02:41:21.216Z,2.10
2022-12-27T02:44:07.026Z,1.90
2022-12-27T02:49:56.118Z,1.80
2022-12-27T02:53:06.799Z,5.00
2022-12-27T02:56:28.528Z,1.60
2022-12-27T02:59:16.420Z,1.50
2022-12-27T03:02:25.981Z,1.50
2022-12-27T03:05:25.697Z,1.50
2022-12-27T03:08:23.684Z,1.50
2022-12-27T03:11:19.067Z,1.50
2022-12-27T03:14:37.156Z,1.40
2022-12-27T03:17:25.431Z,1.30
2022-12-27T03:20:19.531Z,1.20
2022-12-27T03:23:08.259Z,1.10
2022-12-27T03:25:37.464Z,1.10
2022-12-27T03:28:39.963Z,1.10
2022-12-27T03:31:43.056Z,1.10
2022-12-27T03:34:35.696Z,1.20
2022-12-27T03:37:37.677Z,1.30
2022-12-27T03:40:40.213Z,1.30
2022-12-27T03:43:15.428Z,1.30
2022-12-27T03:46:33.566Z,1.20
2022-12-27T03:49:38.952Z,1.20
2022-12-27T03:52:17.226Z,1.10
2022-12-27T03:54:50.063Z,1.00
2022-12-27T03:57:26.954Z,0.90
2022-12-27T03:59:55.093Z,0.90
2022-12-27T04:02:22.435Z,0.90
2022-12-27T04:10:03.699Z,0.90
2022-12-27T04:12:49.451Z,1.00
2022-12-27T04:15:35.358Z,1.10
2022-12-27T04:21:07.139Z,1.00
2022-12-27T04:32:10.865Z,0.90
2022-12-27T04:34:44.036Z,0.90
2022-12-27T04:37:19.445Z,1.10
2022-12-27T04:40:06.778Z,1.00
2022-12-27T04:42:52.732Z,1.00
2022-12-27T04:48:33.423Z,1.10
2022-12-27T04:51:19.738Z,1.10
2022-12-27T04:56:32.663Z,1.00
2022-12-27T04:59:18.529Z,1.00
2022-12-27T05:02:04.066Z,1.10
2022-12-27T05:04:38.430Z,1.20
2022-12-27T05:07:28.738Z,1.10
2022-12-27T05:10:16.389Z,1.10
2022-12-27T05:17:59.777Z,1.10
2022-12-27T05:20:26.744Z,1.10
2022-12-27T05:25:45.703Z,1.00
2022-12-27T05:28:14.080Z,1.20
2022-12-27T05:30:44.314Z,1.10
2022-12-27T05:33:11.702Z,1.20
2022-12-27T05:35:38.994Z,1.20
2022-12-27T05:40:34.286Z,1.20
2022-12-27T05:43:03.533Z,1.10
2022-12-27T05:45:31.191Z,1.20
2022-12-27T05:47:59.917Z,1.30
2022-12-27T05:50:27.070Z,1.20
2022-12-27T05:53:10.245Z,1.20
2022-12-27T05:55:37.321Z,1.30
2022-12-27T05:58:04.285Z,1.20
2022-12-27T06:00:31.582Z,1.20
2022-12-27T06:05:26.336Z,1.20
2022-12-27T06:07:53.343Z,1.10
2022-12-27T06:10:20.451Z,1.20
2022-12-27T06:17:43.771Z,1.10
2022-12-27T06:20:10.861Z,1.20
2022-12-27T06:22:37.828Z,1.10
2022-12-27T06:25:07.856Z,1.10
2022-12-27T06:30:05.101Z,0.80
2022-12-27T06:32:32.624Z,1.00
2022-12-27T06:37:26.975Z,1.00
2022-12-27T06:42:21.443Z,1.00
2022-12-27T06:49:43.290Z,1.00
2022-12-27T06:52:10.281Z,0.90
2022-12-27T06:57:04.663Z,0.90
2022-12-27T06:59:31.629Z,0.80
2022-12-27T07:09:21.183Z,0.60
2022-12-27T07:16:43.021Z,0.10
2022-12-27T07:19:10.382Z,0.10
2022-12-27T07:24:05.674Z,0.30
2022-12-27T07:29:02.362Z,0.20
2022-12-27T07:31:33.203Z,0.20
2022-12-27T07:34:03.625Z,0.20
2022-12-27T07:36:38.158Z,0.20
2022-12-27T07:39:07.534Z,0.10
2022-12-27T07:41:35.923Z,0.10
2022-12-27T07:44:04.108Z,0.20
2022-12-27T07:51:28.209Z,0.50
2022-12-27T07:56:28.375Z,0.80
2022-12-27T07:58:59.849Z,0.80
2022-12-27T08:01:51.083Z,0.90
2022-12-27T08:06:46.509Z,1.00
2022-12-27T08:09:20.681Z,1.10
2022-12-27T08:16:42.665Z,1.30
2022-12-27T08:19:09.648Z,1.40
2022-12-27T08:28:59.463Z,1.60
2022-12-27T08:33:58.697Z,1.70
2022-12-27T08:36:54.122Z,1.70
2022-12-27T08:51:40.312Z,2.20
2022-12-27T08:54:09.108Z,2.40
2022-12-27T08:56:36.629Z,2.40
2022-12-27T08:59:03.776Z,2.50
2022-12-27T09:06:27.790Z,2.90
2022-12-27T09:08:55.929Z,3.00
2022-12-27T09:11:26.966Z,3.10
2022-12-27T09:16:27.488Z,3.20
2022-12-27T09:18:58.132Z,3.30
2022-12-27T09:21:29.784Z,3.40
2022-12-27T09:23:57.176Z,3.50
2022-12-27T09:26:30.880Z,3.60
2022-12-27T09:29:00.131Z,3.70
2022-12-27T09:31:28.323Z,3.60
2022-12-27T09:36:29.737Z,3.80
2022-12-27T09:38:58.961Z,3.90
2022-12-27T09:45:15.453Z,4.20
2022-12-27T09:48:32.906Z,4.20
2022-12-27T09:51:25.177Z,4.40
2022-12-27T09:56:54.606Z,4.70
2022-12-27T10:01:59.948Z,5.30
2022-12-27T10:05:00.891Z,6.00
2022-12-27T10:07:47.603Z,7.30
2022-12-27T10:13:25.483Z,8.00
2022-12-27T10:16:28.754Z,8.30
2022-12-27T10:19:38.548Z,8.10
2022-12-27T10:22:33.873Z,8.10
2022-12-27T10:25:13.152Z,8.40
2022-12-27T10:27:41.712Z,8.80
2022-12-27T10:30:21.597Z,8.60
2022-12-27T10:32:49.749Z,8.80
2022-12-27T10:35:20.765Z,9.00
2022-12-27T10:37:49.907Z,9.20
2022-12-27T10:40:45.652Z,9.30
2022-12-27T10:43:24.542Z,11.20
2022-12-27T10:48:47.383Z,9.50
2022-12-27T10:51:18.564Z,9.50
2022-12-27T10:53:45.558Z,9.70
2022-12-27T10:56:38.693Z,9.90
2022-12-27T11:01:39.800Z,10.80
2022-12-27T11:04:21.331Z,11.10
2022-12-27T11:07:18.315Z,11.20
2022-12-27T11:09:50.834Z,11.10
2022-12-27T11:12:32.072Z,11.20
2022-12-27T11:15:19.703Z,10.90
2022-12-27T11:17:50.126Z,10.00
2022-12-27T11:20:35.299Z,9.90
2022-12-27T11:23:10.159Z,10.10
2022-12-27T11:25:59.660Z,9.60
2022-12-27T11:28:42.927Z,9.70
2022-12-27T11:31:15.812Z,9.70
2022-12-27T11:33:58.962Z,9.60
2022-12-27T11:36:40.663Z,9.90
2022-12-27T11:39:11.513Z,9.30
2022-12-27T11:41:54.697Z,8.90
2022-12-27T11:44:34.462Z,9.40
2022-12-27T11:47:35.827Z,9.50
2022-12-27T11:51:00.324Z,9.70
2022-12-27T11:54:10.459Z,10.70
2022-12-27T11:56:44.455Z,10.30
2022-12-27T11:59:51.069Z,9.50
2022-12-27T12:02:57.765Z,8.20
2022-12-27T12:06:06.208Z,7.80
2022-12-27T12:09:03.615Z,8.40
2022-12-27T12:12:35.759Z,8.70
2022-12-27T12:16:09.129Z,9.10
2022-12-27T12:19:35.104Z,9.90
2022-12-27T12:22:34.679Z,9.60
2022-12-27T12:25:36.453Z,10.10
2022-12-27T12:29:05.436Z,9.90
2022-12-27T12:32:05.225Z,9.60
2022-12-27T12:35:25.313Z,9.90
2022-12-27T12:38:22.969Z,10.50
2022-12-27T12:41:50.436Z,10.90
2022-12-27T12:45:05.798Z,11.60
2022-12-27T12:48:21.394Z,11.60
2022-12-27T12:51:24.174Z,12.40
2022-12-27T12:57:19.465Z,12.10
2022-12-27T13:00:30.918Z,11.70
2022-12-27T13:03:34.544Z,10.50
2022-12-27T13:06:59.990Z,9.90
2022-12-27T13:10:34.424Z,10.00
2022-12-27T13:13:50.605Z,10.40
2022-12-27T13:16:54.350Z,9.80
2022-12-27T13:19:55.698Z,9.90
2022-12-27T13:23:12.997Z,9.30
2022-12-27T13:26:31.598Z,8.40
2022-12-27T13:30:03.027Z,8.00
2022-12-27T13:32:53.837Z,7.00
2022-12-27T13:35:53.733Z,6.70
2022-12-27T13:39:12.784Z,6.40
2022-12-27T13:42:33.169Z,6.20
2022-12-27T13:45:34.359Z,6.30
2022-12-27T13:48:40.477Z,6.70
2022-12-27T13:51:50.264Z,8.60
2022-12-27T13:55:05.855Z,8.70
2022-12-27T13:58:08.747Z,8.70
2022-12-27T14:01:27.827Z,7.60
2022-12-27T14:04:12.398Z,6.70
2022-12-27T14:07:12.635Z,6.50
2022-12-27T14:09:58.174Z,6.30
2022-12-27T14:12:55.163Z,6.20
2022-12-27T14:15:51.836Z,6.30
2022-12-27T14:18:53.663Z,6.60
2022-12-27T14:22:04.659Z,6.90
2022-12-27T14:25:44.597Z,6.80
2022-12-27T14:28:59.513Z,7.00
2022-12-27T14:32:17.802Z,6.90
2022-12-27T14:35:30.592Z,6.60
2022-12-27T14:38:38.084Z,6.20
2022-12-27T14:42:26.860Z,5.80
2022-12-27T14:45:49.998Z,5.70
2022-12-27T14:48:58.339Z,5.70
2022-12-27T14:52:12.853Z,5.70
2022-12-27T14:55:30.034Z,5.50
2022-12-27T14:58:43.136Z,5.40
2022-12-27T15:01:50.000Z,5.20
2022-12-27T15:04:52.680Z,5.10
2022-12-27T15:08:05.008Z,4.90
2022-12-27T15:11:25.001Z,4.70
2022-12-27T15:14:43.366Z,4.50
2022-12-27T15:17:33.228Z,4.30
2022-12-27T15:20:36.134Z,4.30
2022-12-27T15:23:53.185Z,4.20
2022-12-27T15:26:50.443Z,4.10
2022-12-27T15:29:48.242Z,4.10
2022-12-27T15:32:35.456Z,4.00
2022-12-27T15:35:55.058Z,7.20
2022-12-27T15:38:55.267Z,3.70
2022-12-27T15:42:29.261Z,3.60
2022-12-27T15:46:01.077Z,3.30
2022-12-27T15:49:22.233Z,3.00
2022-12-27T15:52:44.952Z,2.80
2022-12-27T15:56:00.689Z,2.60
2022-12-27T15:58:29.012Z,2.50
2022-12-27T16:01:25.276Z,2.40
2022-12-27T16:03:54.978Z,2.30
2022-12-27T16:06:34.578Z,2.20
2022-12-27T16:09:23.894Z,2.10
2022-12-27T16:12:09.774Z,2.00
2022-12-27T16:14:43.728Z,1.90
2022-12-27T16:17:28.896Z,1.80
2022-12-27T16:20:19.260Z,1.70
2022-12-27T16:22:54.334Z,1.50
2022-12-27T16:25:38.609Z,1.40
2022-12-27T16:28:32.019Z,1.30
2022-12-27T16:31:08.862Z,1.30
2022-12-27T16:33:41.921Z,1.40
2022-12-27T16:36:12.251Z,1.60
2022-12-27T16:39:35.136Z,1.70
2022-12-27T16:42:07.955Z,1.40
2022-12-27T16:45:02.773Z,1.40
2022-12-27T16:47:57.023Z,1.30
2022-12-27T16:51:08.615Z,1.10
2022-12-27T16:54:04.200Z,1.00
2022-12-27T16:56:37.506Z,0.90
2022-12-27T17:00:01.333Z,1.00
2022-12-27T17:02:38.012Z,1.00
2022-12-27T17:05:17.041Z,1.10
2022-12-27T17:07:57.871Z,1.00
2022-12-27T17:10:27.780Z,0.90
2022-12-27T17:13:15.339Z,0.80
2022-12-27T17:16:04.245Z,0.70
2022-12-27T17:18:55.203Z,0.70
2022-12-27T17:21:36.017Z,0.70
2022-12-27T17:24:11.423Z,0.70
2022-12-27T17:27:13.583Z,0.60
2022-12-27T17:30:20.927Z,0.60
2022-12-27T17:33:12.197Z,0.60
2022-12-27T17:35:50.930Z,0.60
2022-12-27T17:39:19.584Z,0.60
2022-12-27T17:42:42.771Z,0.50
2022-12-27T17:45:42.202Z,0.60
2022-12-27T17:48:32.223Z,0.60
2022-12-27T17:51:12.672Z,0.60
2022-12-27T17:54:09.945Z,0.60
2022-12-27T17:57:15.412Z,0.50
2022-12-27T17:59:46.267Z,0.40
2022-12-27T18:02:37.992Z,0.30
2022-12-27T18:05:13.808Z,0.20
2022-12-27T18:07:43.815Z,0.20
2022-12-27T18:10:26.963Z,0.10
2022-12-27T18:12:59.749Z,0.30
2022-12-27T18:15:32.171Z,0.20
2022-12-27T18:18:06.284Z,0.10
2022-12-27T18:20:41.377Z,0.20
2022-12-27T18:23:17.844Z,0.10
2022-12-27T18:25:44.739Z,0.30
2022-12-27T18:28:33.931Z,0.40
2022-12-27T18:31:36.171Z,0.30
2022-12-27T18:34:35.684Z,0.20
2022-12-27T18:37:17.314Z,0.30
2022-12-27T18:40:01.528Z,0.20
2022-12-27T18:42:36.981Z,0.20
2022-12-27T18:45:33.482Z,0.10
2022-12-27T18:48:04.470Z,0.10
2022-12-27T18:50:34.606Z,0.00
2022-12-27T18:55:35.082Z,-0.20
2022-12-27T18:58:20.539Z,-0.30
2022-12-27T19:01:02.238Z,-0.50
2022-12-27T19:03:35.231Z,-0.50
2022-12-27T19:06:10.157Z,-0.50
2022-12-27T19:08:51.541Z,-0.50
2022-12-27T19:11:36.187Z,-0.50
2022-12-27T19:14:04.906Z,-0.50
2022-12-27T19:16:34.753Z,-0.40
2022-12-27T19:19:24.855Z,-0.40
2022-12-27T19:21:52.140Z,-0.40
2022-12-27T19:24:27.329Z,-0.60
2022-12-27T19:27:21.991Z,-0.70
2022-12-27T19:29:52.055Z,-0.70
2022-12-27T19:32:34.088Z,-0.70
2022-12-27T19:35:04.417Z,-0.70
2022-12-27T19:37:33.540Z,-0.60
2022-12-27T19:40:00.920Z,-0.50
2022-12-27T19:42:34.620Z,-0.40
2022-12-27T19:45:01.700Z,-0.30
2022-12-27T19:47:28.768Z,-0.30
2022-12-27T19:49:55.899Z,-0.30
2022-12-27T19:52:27.073Z,-0.40
2022-12-27T19:55:05.255Z,-0.40
2022-12-27T20:02:32.275Z,-0.70
2022-12-27T20:12:22.554Z,-0.80
2022-12-27T20:17:18.239Z,-0.90
2022-12-27T20:22:12.795Z,-1.00
2022-12-27T20:27:07.358Z,-1.20
2022-12-27T20:34:29.923Z,-0.90
2022-12-27T20:39:25.889Z,-0.90
2022-12-27T20:49:15.651Z,-1.20
2022-12-27T20:51:42.705Z,-1.30
2022-12-27T20:54:13.778Z,-1.30
2022-12-27T20:56:40.997Z,-1.30
2022-12-27T20:59:07.936Z,-1.40
2022-12-27T21:11:32.489Z,-1.30
2022-12-27T21:14:04.932Z,-1.30
2022-12-27T21:16:35.210Z,-1.40
2022-12-27T21:21:37.880Z,-1.10
2022-12-27T21:24:07.771Z,-0.90
2022-12-27T21:26:38.520Z,-0.80
2022-12-27T21:29:09.175Z,-0.80
2022-12-27T21:31:37.227Z,-0.80
2022-12-27T21:36:34.044Z,-0.40
2022-12-27T21:39:02.177Z,-0.40
2022-12-27T21:41:33.931Z,-0.50
2022-12-27T21:44:02.494Z,-0.50
2022-12-27T21:46:42.502Z,-0.60
2022-12-27T21:49:13.414Z,-0.50
2022-12-27T21:51:43.150Z,-0.60
2022-12-27T21:59:10.922Z,-0.70
2022-12-27T22:01:50.778Z,-0.80
2022-12-27T22:04:22.622Z,-0.90
2022-12-27T22:06:50.417Z,-1.10
2022-12-27T22:19:12.669Z,-1.10
2022-12-27T22:21:41.670Z,-0.70
2022-12-27T22:24:19.053Z,-0.50
2022-12-27T22:29:15.511Z,-0.50
2022-12-27T22:36:37.795Z,-0.90
2022-12-27T22:39:05.664Z,-1.00
2022-12-27T22:41:35.799Z,-1.10
2022-12-27T22:44:11.439Z,-1.20
2022-12-27T22:51:54.601Z,-1.30
2022-12-27T23:02:03.880Z,-0.90
2022-12-27T23:04:31.024Z,-0.70
2022-12-27T23:07:01.532Z,-0.60
2022-12-27T23:09:29.383Z,-0.40
2022-12-27T23:16:51.579Z,-0.20
2022-12-27T23:19:24.131Z,-0.30
2022-12-27T23:26:46.168Z,-0.30
2022-12-27T23:29:14.905Z,-0.30
2022-12-27T23:31:54.957Z,-0.20
2022-12-27T23:37:00.916Z,-0.10
2022-12-27T23:39:28.528Z,-0.10
2022-12-27T23:44:32.829Z,-0.10
2022-12-27T23:54:23.492Z,-0.30
2022-12-27T23:56:50.492Z,-0.40
